Main page
METAR-TAF:

METAR-TAF

Airports :

Hakkari–Yüksekova Airport

Yüksekova, Turkey

latitude: 37-33-06N, longitude: 44-14-01E, elevation: 1950 m

Current weather observation

The report was made 7 hours and 43 minutes ago, at 12:50 UTC
Wind 1 kt from variable directions
Temperature 6°C
Humidity 75%
Pressure 1014 hPa
Visibility 10 km or more
Scattered clouds at a height of 3500 ft

METAR: LTCW 281250Z VRB01KT 9999 SCT035 06/02 Q1014

Time: 23:33 (20:33 UTC)

Forecast

The report was made 3 hours and 53 minutes ago, at 16:40 UTC
Forecast valid from 28 at 18 UTC to 29 at 03 UTC
Wind 2 kt from variable directions
Visibility: 4000 m
Scattered clouds at a height of 3000 ft
Broken clouds at a height of 7000 ft
mist
Probability 40% :
Temporary
from 29 at 00 UTC to 29 at 03 UTC
Visibility: 2900 m
Few clouds at a height of 1500 ft, Cumulonimbus.
Broken clouds at a height of 3000 ft
thunderstorm, light rain, mist

TAF: LTCW 281640Z 2818/2903 VRB02KT 4000 BR SCT030 BKN070 PROB40 TEMPO 2900/2903 2900 -TSRA BR FEW015CB BKN030

Weather observations and forecasts of more than 4000 airports (METAR and TAF reports).

The available stations are represented by yellow and red dots on the map.

Hover mouse over dot to see the name of the station.

Then click to see weather observations and forecasts.

To change the map : click on the green buttons with a black cross to zoom in, on the green button with a dash to zoom out, or on the green arrows for adjacent maps.


METAR-TAF: